sensor_id;sensor_type;location;lat;lon;timestamp;temperature;humidity
26272;DHT22;13997;48.902;12.472;2023-04-07T00:02:09;51.50;2227.20
26272;DHT22;13997;48.902;12.472;2023-04-07T00:04:35;51.50;2227.20
26272;DHT22;13997;48.902;12.472;2023-04-07T00:07:01;51.50;2227.20
26272;DHT22;13997;48.902;12.472;2023-04-07T00:09:26;51.40;2227.20
26272;DHT22;13997;48.902;12.472;2023-04-07T00:11:52;51.40;2227.20
26272;DHT22;13997;48.902;12.472;2023-04-07T00:14:17;51.30;2227.20
26272;DHT22;13997;48.902;12.472;2023-04-07T00:16:43;51.30;2227.20
26272;DHT22;13997;48.902;12.472;2023-04-07T00:19:09;51.30;2227.20
26272;DHT22;13997;48.902;12.472;2023-04-07T00:21:34;51.30;2227.20
26272;DHT22;13997;48.902;12.472;2023-04-07T00:24:00;51.30;2227.20
26272;DHT22;13997;48.902;12.472;2023-04-07T00:26:25;51.20;2227.20
26272;DHT22;13997;48.902;12.472;2023-04-07T00:28:56;26.50;2201.60
26272;DHT22;13997;48.902;12.472;2023-04-07T00:31:22;26.50;2201.60
26272;DHT22;13997;48.902;12.472;2023-04-07T00:33:47;26.40;2201.60
26272;DHT22;13997;48.902;12.472;2023-04-07T00:36:13;26.40;2201.60
26272;DHT22;13997;48.902;12.472;2023-04-07T00:38:39;26.40;2201.60
26272;DHT22;13997;48.902;12.472;2023-04-07T00:41:05;26.40;2201.60
26272;DHT22;13997;48.902;12.472;2023-04-07T00:43:31;26.40;2201.60
26272;DHT22;13997;48.902;12.472;2023-04-07T00:45:56;26.40;2201.60
26272;DHT22;13997;48.902;12.472;2023-04-07T00:48:22;26.40;2201.60
26272;DHT22;13997;48.902;12.472;2023-04-07T00:50:48;26.40;2201.60
26272;DHT22;13997;48.902;12.472;2023-04-07T00:53:14;26.40;2201.60
26272;DHT22;13997;48.902;12.472;2023-04-07T00:55:40;26.40;2201.60
26272;DHT22;13997;48.902;12.472;2023-04-07T00:58:06;26.40;2201.60
26272;DHT22;13997;48.902;12.472;2023-04-07T01:00:40;26.30;2201.60
26272;DHT22;13997;48.902;12.472;2023-04-07T01:03:26;26.20;2201.60
26272;DHT22;13997;48.902;12.472;2023-04-07T01:05:59;26.20;2201.60
26272;DHT22;13997;48.902;12.472;2023-04-07T01:08:53;26.20;2201.60
26272;DHT22;13997;48.902;12.472;2023-04-07T01:11:31;26.10;2201.60
26272;DHT22;13997;48.902;12.472;2023-04-07T01:14:00;26.20;2201.60
26272;DHT22;13997;48.902;12.472;2023-04-07T01:16:31;26.20;2201.60
26272;DHT22;13997;48.902;12.472;2023-04-07T01:21:55;26.20;2201.60
26272;DHT22;13997;48.902;12.472;2023-04-07T01:27:33;26.20;2201.60
26272;DHT22;13997;48.902;12.472;2023-04-07T01:30:01;26.20;2201.60
26272;DHT22;13997;48.902;12.472;2023-04-07T01:32:29;26.20;2201.60
26272;DHT22;13997;48.902;12.472;2023-04-07T01:34:56;26.20;2201.60
26272;DHT22;13997;48.902;12.472;2023-04-07T01:37:22;26.20;2201.60
26272;DHT22;13997;48.902;12.472;2023-04-07T01:39:49;26.10;2201.60
26272;DHT22;13997;48.902;12.472;2023-04-07T01:42:16;26.20;2201.60
26272;DHT22;13997;48.902;12.472;2023-04-07T01:44:43;26.20;2201.60
26272;DHT22;13997;48.902;12.472;2023-04-07T01:47:10;26.10;2201.60
26272;DHT22;13997;48.902;12.472;2023-04-07T01:49:37;26.10;2201.60
26272;DHT22;13997;48.902;12.472;2023-04-07T01:52:04;26.00;2201.60
26272;DHT22;13997;48.902;12.472;2023-04-07T01:54:30;26.10;2201.60
26272;DHT22;13997;48.902;12.472;2023-04-07T01:56:57;26.00;2201.60
26272;DHT22;13997;48.902;12.472;2023-04-07T01:59:22;26.00;2201.60
26272;DHT22;13997;48.902;12.472;2023-04-07T02:01:48;26.00;2201.60
26272;DHT22;13997;48.902;12.472;2023-04-07T02:07:28;25.90;2201.60
26272;DHT22;13997;48.902;12.472;2023-04-07T02:09:57;25.90;2201.60
26272;DHT22;13997;48.902;12.472;2023-04-07T02:12:26;25.80;2201.60
26272;DHT22;13997;48.902;12.472;2023-04-07T02:14:54;25.80;2201.60
26272;DHT22;13997;48.902;12.472;2023-04-07T02:17:22;25.80;2201.60
26272;DHT22;13997;48.902;12.472;2023-04-07T02:19:50;25.80;2201.60
26272;DHT22;13997;48.902;12.472;2023-04-07T02:22:17;25.80;2201.60
26272;DHT22;13997;48.902;12.472;2023-04-07T02:24:43;25.80;2201.60
26272;DHT22;13997;48.902;12.472;2023-04-07T02:27:08;25.80;2201.60
26272;DHT22;13997;48.902;12.472;2023-04-07T02:29:34;25.80;2201.60
26272;DHT22;13997;48.902;12.472;2023-04-07T02:31:59;25.70;2201.60
26272;DHT22;13997;48.902;12.472;2023-04-07T02:34:25;25.70;2201.60
26272;DHT22;13997;48.902;12.472;2023-04-07T02:36:50;25.70;2201.60
26272;DHT22;13997;48.902;12.472;2023-04-07T02:39:16;25.60;2201.60
26272;DHT22;13997;48.902;12.472;2023-04-07T02:41:42;25.60;2201.60
26272;DHT22;13997;48.902;12.472;2023-04-07T02:44:07;25.70;2201.60
26272;DHT22;13997;48.902;12.472;2023-04-07T02:46:33;25.60;2201.60
26272;DHT22;13997;48.902;12.472;2023-04-07T02:48:58;25.60;2201.60
26272;DHT22;13997;48.902;12.472;2023-04-07T02:51:24;25.60;2201.60
26272;DHT22;13997;48.902;12.472;2023-04-07T02:53:51;25.60;2201.60
26272;DHT22;13997;48.902;12.472;2023-04-07T02:56:17;25.60;2201.60
26272;DHT22;13997;48.902;12.472;2023-04-07T02:58:42;0.90;2201.60
26272;DHT22;13997;48.902;12.472;2023-04-07T03:01:08;0.90;2201.60
26272;DHT22;13997;48.902;12.472;2023-04-07T03:03:34;0.90;2201.60
26272;DHT22;13997;48.902;12.472;2023-04-07T03:05:59;0.80;2201.60
26272;DHT22;13997;48.902;12.472;2023-04-07T03:08:25;0.80;2201.60
26272;DHT22;13997;48.902;12.472;2023-04-07T03:10:51;0.90;2201.60
26272;DHT22;13997;48.902;12.472;2023-04-07T03:13:17;0.80;2201.60
26272;DHT22;13997;48.902;12.472;2023-04-07T03:15:44;0.80;2201.60
26272;DHT22;13997;48.902;12.472;2023-04-07T03:18:10;0.70;2201.60
26272;DHT22;13997;48.902;12.472;2023-04-07T03:20:36;0.60;2201.60
26272;DHT22;13997;48.902;12.472;2023-04-07T03:23:02;0.60;2201.60
26272;DHT22;13997;48.902;12.472;2023-04-07T03:25:27;0.50;2201.60
26272;DHT22;13997;48.902;12.472;2023-04-07T03:27:53;0.40;2201.60
26272;DHT22;13997;48.902;12.472;2023-04-07T03:30:19;0.40;2201.60
26272;DHT22;13997;48.902;12.472;2023-04-07T03:32:44;0.40;2201.60
26272;DHT22;13997;48.902;12.472;2023-04-07T03:35:10;0.40;2201.60
26272;DHT22;13997;48.902;12.472;2023-04-07T03:37:35;0.50;2201.60
26272;DHT22;13997;48.902;12.472;2023-04-07T03:40:01;0.50;2201.60
26272;DHT22;13997;48.902;12.472;2023-04-07T03:42:27;0.60;2201.60
26272;DHT22;13997;48.902;12.472;2023-04-07T03:44:52;0.60;2201.60
26272;DHT22;13997;48.902;12.472;2023-04-07T03:47:18;0.60;2201.60
26272;DHT22;13997;48.902;12.472;2023-04-07T03:49:43;0.50;2201.60
26272;DHT22;13997;48.902;12.472;2023-04-07T03:52:09;0.40;2201.60
26272;DHT22;13997;48.902;12.472;2023-04-07T03:54:35;0.40;2201.60
26272;DHT22;13997;48.902;12.472;2023-04-07T03:57:00;0.40;2201.60
26272;DHT22;13997;48.902;12.472;2023-04-07T03:59:27;0.40;2201.60
26272;DHT22;13997;48.902;12.472;2023-04-07T04:01:52;0.40;2201.60
26272;DHT22;13997;48.902;12.472;2023-04-07T04:04:18;0.40;2201.60
26272;DHT22;13997;48.902;12.472;2023-04-07T04:06:43;0.40;2201.60
26272;DHT22;13997;48.902;12.472;2023-04-07T04:09:09;0.30;2201.60
26272;DHT22;13997;48.902;12.472;2023-04-07T04:11:35;0.30;2201.60
26272;DHT22;13997;48.902;12.472;2023-04-07T04:14:01;0.40;2201.60
26272;DHT22;13997;48.902;12.472;2023-04-07T04:16:26;0.30;2201.60
26272;DHT22;13997;48.902;12.472;2023-04-07T04:18:52;0.30;2201.60
26272;DHT22;13997;48.902;12.472;2023-04-07T04:21:17;0.30;2201.60
26272;DHT22;13997;48.902;12.472;2023-04-07T04:23:43;0.40;2201.60
26272;DHT22;13997;48.902;12.472;2023-04-07T04:26:08;0.30;2201.60
26272;DHT22;13997;48.902;12.472;2023-04-07T04:28:34;0.30;2201.60
26272;DHT22;13997;48.902;12.472;2023-04-07T04:31:00;0.30;2201.60
26272;DHT22;13997;48.902;12.472;2023-04-07T04:33:25;0.30;2201.60
26272;DHT22;13997;48.902;12.472;2023-04-07T04:35:51;0.20;2201.60
26272;DHT22;13997;48.902;12.472;2023-04-07T04:38:16;0.10;2201.60
26272;DHT22;13997;48.902;12.472;2023-04-07T04:40:42;0.10;2201.60
26272;DHT22;13997;48.902;12.472;2023-04-07T04:43:07;0.00;2201.60
26272;DHT22;13997;48.902;12.472;2023-04-07T04:45:34;0.00;2201.60
26272;DHT22;13997;48.902;12.472;2023-04-07T04:48:00;0.00;2201.60
26272;DHT22;13997;48.902;12.472;2023-04-07T04:50:25;0.00;2201.60
26272;DHT22;13997;48.902;12.472;2023-04-07T04:52:51;0.10;2201.60
26272;DHT22;13997;48.902;12.472;2023-04-07T04:55:18;0.10;2201.60
26272;DHT22;13997;48.902;12.472;2023-04-07T04:57:43;0.10;2201.60
26272;DHT22;13997;48.902;12.472;2023-04-07T05:00:09;0.10;2201.60
26272;DHT22;13997;48.902;12.472;2023-04-07T05:02:35;0.10;2201.60
26272;DHT22;13997;48.902;12.472;2023-04-07T05:05:01;0.10;2201.60
26272;DHT22;13997;48.902;12.472;2023-04-07T05:07:26;0.10;2201.60
26272;DHT22;13997;48.902;12.472;2023-04-07T05:09:52;0.10;2201.60
26272;DHT22;13997;48.902;12.472;2023-04-07T05:12:18;0.20;2201.60
26272;DHT22;13997;48.902;12.472;2023-04-07T05:14:43;0.20;2201.60
26272;DHT22;13997;48.902;12.472;2023-04-07T05:17:09;0.30;2201.60
26272;DHT22;13997;48.902;12.472;2023-04-07T05:19:34;0.30;2201.60
26272;DHT22;13997;48.902;12.472;2023-04-07T05:22:00;0.50;2201.60
26272;DHT22;13997;48.902;12.472;2023-04-07T05:24:27;0.50;2201.60
26272;DHT22;13997;48.902;12.472;2023-04-07T05:26:52;0.60;2201.60
26272;DHT22;13997;48.902;12.472;2023-04-07T05:29:18;0.70;2201.60
26272;DHT22;13997;48.902;12.472;2023-04-07T05:31:44;0.80;2201.60
26272;DHT22;13997;48.902;12.472;2023-04-07T05:34:09;0.80;2201.60
26272;DHT22;13997;48.902;12.472;2023-04-07T05:36:35;0.90;2201.60
26272;DHT22;13997;48.902;12.472;2023-04-07T05:39:00;25.60;2201.60
26272;DHT22;13997;48.902;12.472;2023-04-07T05:41:26;25.70;2201.60
26272;DHT22;13997;48.902;12.472;2023-04-07T05:43:52;25.80;2201.60
26272;DHT22;13997;48.902;12.472;2023-04-07T05:46:17;25.90;2201.60
26272;DHT22;13997;48.902;12.472;2023-04-07T05:48:43;26.00;2201.60
26272;DHT22;13997;48.902;12.472;2023-04-07T05:51:08;26.10;2201.60
26272;DHT22;13997;48.902;12.472;2023-04-07T05:53:34;26.20;2201.60
26272;DHT22;13997;48.902;12.472;2023-04-07T05:55:59;26.30;2201.60
26272;DHT22;13997;48.902;12.472;2023-04-07T05:58:25;26.40;2201.60
26272;DHT22;13997;48.902;12.472;2023-04-07T06:00:50;51.20;2227.20
26272;DHT22;13997;48.902;12.472;2023-04-07T06:03:16;51.20;2227.20
26272;DHT22;13997;48.902;12.472;2023-04-07T06:05:41;51.30;2227.20
26272;DHT22;13997;48.902;12.472;2023-04-07T06:08:09;51.50;2227.20
26272;DHT22;13997;48.902;12.472;2023-04-07T06:10:35;51.60;2227.20
26272;DHT22;13997;48.902;12.472;2023-04-07T06:13:01;51.70;2227.20
26272;DHT22;13997;48.902;12.472;2023-04-07T06:15:26;51.80;2227.20
26272;DHT22;13997;48.902;12.472;2023-04-07T06:17:52;51.90;2227.20
26272;DHT22;13997;48.902;12.472;2023-04-07T06:20:17;51.90;2227.20
26272;DHT22;13997;48.902;12.472;2023-04-07T06:22:46;52.00;2227.20
26272;DHT22;13997;48.902;12.472;2023-04-07T06:25:11;52.10;2227.20
26272;DHT22;13997;48.902;12.472;2023-04-07T06:27:37;76.90;2227.20
26272;DHT22;13997;48.902;12.472;2023-04-07T06:30:03;77.00;2227.20
26272;DHT22;13997;48.902;12.472;2023-04-07T06:32:28;77.10;2227.20
26272;DHT22;13997;48.902;12.472;2023-04-07T06:34:54;77.20;2227.20
26272;DHT22;13997;48.902;12.472;2023-04-07T06:37:20;77.40;2227.20
26272;DHT22;13997;48.902;12.472;2023-04-07T06:39:49;77.50;2227.20
26272;DHT22;13997;48.902;12.472;2023-04-07T06:42:14;77.70;2227.20
26272;DHT22;13997;48.902;12.472;2023-04-07T06:44:40;102.40;2227.20
26272;DHT22;13997;48.902;12.472;2023-04-07T06:47:05;102.50;2227.20
26272;DHT22;13997;48.902;12.472;2023-04-07T06:49:31;102.70;2227.20
26272;DHT22;13997;48.902;12.472;2023-04-07T06:51:57;102.80;2227.20
26272;DHT22;13997;48.902;12.472;2023-04-07T06:54:22;103.00;2227.20
26272;DHT22;13997;48.902;12.472;2023-04-07T06:56:48;103.20;2227.20
26272;DHT22;13997;48.902;12.472;2023-04-07T06:59:13;103.30;2227.20
26272;DHT22;13997;48.902;12.472;2023-04-07T07:01:39;128.00;2252.80
26272;DHT22;13997;48.902;12.472;2023-04-07T07:04:05;128.10;2252.80
26272;DHT22;13997;48.902;12.472;2023-04-07T07:06:30;128.30;2252.80
26272;DHT22;13997;48.902;12.472;2023-04-07T07:08:57;128.60;2252.80
26272;DHT22;13997;48.902;12.472;2023-04-07T07:11:22;128.70;2252.80
26272;DHT22;13997;48.902;12.472;2023-04-07T07:13:48;128.90;2252.80
26272;DHT22;13997;48.902;12.472;2023-04-07T07:16:13;153.70;2252.80
26272;DHT22;13997;48.902;12.472;2023-04-07T07:18:39;153.70;2252.80
26272;DHT22;13997;48.902;12.472;2023-04-07T07:21:04;153.70;2252.80
26272;DHT22;13997;48.902;12.472;2023-04-07T07:23:30;153.90;2252.80
26272;DHT22;13997;48.902;12.472;2023-04-07T07:25:56;154.10;2252.80
26272;DHT22;13997;48.902;12.472;2023-04-07T07:28:21;154.10;2252.80
26272;DHT22;13997;48.902;12.472;2023-04-07T07:30:48;154.00;2252.80
26272;DHT22;13997;48.902;12.472;2023-04-07T07:33:13;154.20;2252.80
26272;DHT22;13997;48.902;12.472;2023-04-07T07:35:39;154.50;2252.80
26272;DHT22;13997;48.902;12.472;2023-04-07T07:38:05;179.30;2252.80
26272;DHT22;13997;48.902;12.472;2023-04-07T07:40:31;179.50;2252.80
26272;DHT22;13997;48.902;12.472;2023-04-07T07:42:56;179.70;2252.80
26272;DHT22;13997;48.902;12.472;2023-04-07T07:45:22;180.00;2252.80
26272;DHT22;13997;48.902;12.472;2023-04-07T07:47:48;204.90;2252.80
26272;DHT22;13997;48.902;12.472;2023-04-07T14:02:44;410.20;1664.00
26272;DHT22;13997;48.902;12.472;2023-04-07T14:05:11;410.00;1664.00
26272;DHT22;13997;48.902;12.472;2023-04-07T14:07:37;410.00;1689.60
26272;DHT22;13997;48.902;12.472;2023-04-07T14:10:03;410.10;1740.80
26272;DHT22;13997;48.902;12.472;2023-04-07T14:12:28;410.40;1740.80
26272;DHT22;13997;48.902;12.472;2023-04-07T16:26:44;358.60;1638.40
26272;DHT22;13997;48.902;12.472;2023-04-07T16:29:18;333.70;1689.60
26272;DHT22;13997;48.902;12.472;2023-04-07T16:31:44;333.60;1689.60
26272;DHT22;13997;48.902;12.472;2023-04-07T16:34:10;333.40;1689.60
26272;DHT22;13997;48.902;12.472;2023-04-07T16:36:36;333.40;1715.20
26272;DHT22;13997;48.902;12.472;2023-04-07T16:39:02;333.30;1740.80
26272;DHT22;13997;48.902;12.472;2023-04-07T16:41:28;333.20;1792.00
26272;DHT22;13997;48.902;12.472;2023-04-07T16:43:53;333.10;1766.40
26272;DHT22;13997;48.902;12.472;2023-04-07T16:46:19;333.10;1792.00
26272;DHT22;13997;48.902;12.472;2023-04-07T16:48:45;333.00;1792.00
26272;DHT22;13997;48.902;12.472;2023-04-07T18:51:12;230.40;2252.80
26272;DHT22;13997;48.902;12.472;2023-04-07T19:00:56;205.60;2252.80
26272;DHT22;13997;48.902;12.472;2023-04-07T19:03:22;205.40;2252.80
26272;DHT22;13997;48.902;12.472;2023-04-07T19:05:48;205.40;2252.80
26272;DHT22;13997;48.902;12.472;2023-04-07T19:08:14;205.40;2252.80
26272;DHT22;13997;48.902;12.472;2023-04-07T19:10:40;205.40;2252.80
26272;DHT22;13997;48.902;12.472;2023-04-07T19:13:05;205.40;2252.80
26272;DHT22;13997;48.902;12.472;2023-04-07T19:15:32;205.40;2252.80
26272;DHT22;13997;48.902;12.472;2023-04-07T19:18:03;205.30;2252.80
26272;DHT22;13997;48.902;12.472;2023-04-07T19:20:29;205.30;2252.80
26272;DHT22;13997;48.902;12.472;2023-04-07T19:22:55;205.30;2252.80
26272;DHT22;13997;48.902;12.472;2023-04-07T19:25:22;205.20;2252.80
26272;DHT22;13997;48.902;12.472;2023-04-07T19:27:48;205.20;2252.80
26272;DHT22;13997;48.902;12.472;2023-04-07T19:30:14;205.10;2252.80
26272;DHT22;13997;48.902;12.472;2023-04-07T19:32:40;205.10;2252.80
26272;DHT22;13997;48.902;12.472;2023-04-07T19:35:06;205.00;2252.80
26272;DHT22;13997;48.902;12.472;2023-04-07T19:37:32;205.00;2252.80
26272;DHT22;13997;48.902;12.472;2023-04-07T19:39:58;205.00;2252.80
26272;DHT22;13997;48.902;12.472;2023-04-07T19:42:24;204.90;2252.80
26272;DHT22;13997;48.902;12.472;2023-04-07T19:44:50;204.90;2252.80
26272;DHT22;13997;48.902;12.472;2023-04-07T19:47:16;204.80;2252.80
26272;DHT22;13997;48.902;12.472;2023-04-07T19:49:41;180.10;2252.80
26272;DHT22;13997;48.902;12.472;2023-04-07T19:52:07;180.10;2252.80
26272;DHT22;13997;48.902;12.472;2023-04-07T19:54:32;180.00;2252.80
26272;DHT22;13997;48.902;12.472;2023-04-07T19:57:01;180.00;2252.80
26272;DHT22;13997;48.902;12.472;2023-04-07T20:01:53;180.10;2252.80
26272;DHT22;13997;48.902;12.472;2023-04-07T20:04:19;179.90;2252.80
